sensor_id;sensor_type;location;lat;lon;timestamp;P1;durP1;ratioP1;P2;durP2;ratioP2
69188;SDS011;56302;52.322;5.926;2023-04-06T00:00:52;9.40;;;5.32;;
69188;SDS011;56302;52.322;5.926;2023-04-06T00:03:17;10.57;;;5.50;;
69188;SDS011;56302;52.322;5.926;2023-04-06T00:05:43;11.88;;;6.22;;
69188;SDS011;56302;52.322;5.926;2023-04-06T00:08:08;13.00;;;6.97;;
69188;SDS011;56302;52.322;5.926;2023-04-06T00:10:34;12.65;;;6.60;;
69188;SDS011;56302;52.322;5.926;2023-04-06T00:13:00;13.40;;;6.20;;
69188;SDS011;56302;52.322;5.926;2023-04-06T00:15:26;11.75;;;6.07;;
69188;SDS011;56302;52.322;5.926;2023-04-06T00:17:51;12.73;;;6.65;;
69188;SDS011;56302;52.322;5.926;2023-04-06T00:20:17;13.80;;;6.53;;
69188;SDS011;56302;52.322;5.926;2023-04-06T00:22:43;12.05;;;6.32;;
69188;SDS011;56302;52.322;5.926;2023-04-06T00:25:09;9.88;;;5.88;;
69188;SDS011;56302;52.322;5.926;2023-04-06T00:27:36;14.18;;;7.03;;
69188;SDS011;56302;52.322;5.926;2023-04-06T00:30:03;13.03;;;6.37;;
69188;SDS011;56302;52.322;5.926;2023-04-06T00:32:29;14.82;;;6.55;;
69188;SDS011;56302;52.322;5.926;2023-04-06T00:34:55;11.20;;;6.00;;
69188;SDS011;56302;52.322;5.926;2023-04-06T00:37:21;11.40;;;6.27;;
69188;SDS011;56302;52.322;5.926;2023-04-06T00:39:46;12.65;;;6.45;;
69188;SDS011;56302;52.322;5.926;2023-04-06T00:42:12;10.70;;;5.80;;
69188;SDS011;56302;52.322;5.926;2023-04-06T00:44:39;12.73;;;6.32;;
69188;SDS011;56302;52.322;5.926;2023-04-06T00:47:05;13.40;;;7.00;;
69188;SDS011;56302;52.322;5.926;2023-04-06T00:49:31;11.63;;;5.85;;
69188;SDS011;56302;52.322;5.926;2023-04-06T00:51:57;11.55;;;6.07;;
69188;SDS011;56302;52.322;5.926;2023-04-06T00:54:23;10.80;;;5.90;;
69188;SDS011;56302;52.322;5.926;2023-04-06T00:56:48;12.07;;;5.90;;
69188;SDS011;56302;52.322;5.926;2023-04-06T00:59:14;11.90;;;6.15;;
69188;SDS011;56302;52.322;5.926;2023-04-06T01:01:40;13.05;;;5.38;;
69188;SDS011;56302;52.322;5.926;2023-04-06T01:04:06;11.98;;;6.40;;
69188;SDS011;56302;52.322;5.926;2023-04-06T01:06:31;10.73;;;5.67;;
69188;SDS011;56302;52.322;5.926;2023-04-06T01:08:57;9.87;;;5.50;;
69188;SDS011;56302;52.322;5.926;2023-04-06T01:11:22;13.05;;;5.65;;
69188;SDS011;56302;52.322;5.926;2023-04-06T01:13:48;10.03;;;5.50;;
69188;SDS011;56302;52.322;5.926;2023-04-06T01:16:13;10.35;;;5.93;;
69188;SDS011;56302;52.322;5.926;2023-04-06T01:18:39;13.20;;;6.10;;
69188;SDS011;56302;52.322;5.926;2023-04-06T01:21:05;12.93;;;5.72;;
69188;SDS011;56302;52.322;5.926;2023-04-06T01:23:33;11.20;;;5.37;;
69188;SDS011;56302;52.322;5.926;2023-04-06T01:25:59;11.52;;;5.78;;
69188;SDS011;56302;52.322;5.926;2023-04-06T01:28:25;11.30;;;5.60;;
69188;SDS011;56302;52.322;5.926;2023-04-06T01:30:50;12.15;;;6.00;;
69188;SDS011;56302;52.322;5.926;2023-04-06T01:33:16;14.30;;;5.87;;
69188;SDS011;56302;52.322;5.926;2023-04-06T01:35:41;15.10;;;5.77;;
69188;SDS011;56302;52.322;5.926;2023-04-06T01:38:07;12.43;;;6.05;;
69188;SDS011;56302;52.322;5.926;2023-04-06T01:40:32;10.20;;;5.60;;
69188;SDS011;56302;52.322;5.926;2023-04-06T01:42:58;17.23;;;6.57;;
69188;SDS011;56302;52.322;5.926;2023-04-06T01:45:24;11.77;;;5.25;;
69188;SDS011;56302;52.322;5.926;2023-04-06T01:47:50;12.23;;;5.55;;
69188;SDS011;56302;52.322;5.926;2023-04-06T01:50:15;9.77;;;4.83;;
69188;SDS011;56302;52.322;5.926;2023-04-06T01:52:41;12.10;;;5.77;;
69188;SDS011;56302;52.322;5.926;2023-04-06T01:55:06;9.80;;;5.10;;
69188;SDS011;56302;52.322;5.926;2023-04-06T01:57:32;11.93;;;6.00;;
69188;SDS011;56302;52.322;5.926;2023-04-06T01:59:58;11.00;;;5.35;;
69188;SDS011;56302;52.322;5.926;2023-04-06T02:02:23;15.97;;;5.73;;
69188;SDS011;56302;52.322;5.926;2023-04-06T02:04:49;9.75;;;5.20;;
69188;SDS011;56302;52.322;5.926;2023-04-06T02:07:15;10.90;;;5.60;;
69188;SDS011;56302;52.322;5.926;2023-04-06T02:09:41;18.38;;;6.57;;
69188;SDS011;56302;52.322;5.926;2023-04-06T02:12:06;10.87;;;5.73;;
69188;SDS011;56302;52.322;5.926;2023-04-06T02:14:32;10.70;;;5.67;;
69188;SDS011;56302;52.322;5.926;2023-04-06T02:16:57;11.38;;;5.70;;
69188;SDS011;56302;52.322;5.926;2023-04-06T02:19:23;10.93;;;5.00;;
69188;SDS011;56302;52.322;5.926;2023-04-06T02:21:49;11.10;;;6.00;;
69188;SDS011;56302;52.322;5.926;2023-04-06T02:24:14;14.07;;;6.47;;
69188;SDS011;56302;52.322;5.926;2023-04-06T02:26:40;11.80;;;5.60;;
69188;SDS011;56302;52.322;5.926;2023-04-06T02:29:05;14.53;;;6.73;;
69188;SDS011;56302;52.322;5.926;2023-04-06T02:31:32;12.02;;;5.97;;
69188;SDS011;56302;52.322;5.926;2023-04-06T02:33:57;10.10;;;5.60;;
69188;SDS011;56302;52.322;5.926;2023-04-06T02:36:23;11.10;;;5.28;;
69188;SDS011;56302;52.322;5.926;2023-04-06T02:38:48;9.87;;;5.43;;
69188;SDS011;56302;52.322;5.926;2023-04-06T02:41:14;10.67;;;5.43;;
69188;SDS011;56302;52.322;5.926;2023-04-06T02:43:39;13.82;;;5.95;;
69188;SDS011;56302;52.322;5.926;2023-04-06T02:46:05;12.57;;;5.90;;
69188;SDS011;56302;52.322;5.926;2023-04-06T02:48:31;13.35;;;5.57;;
69188;SDS011;56302;52.322;5.926;2023-04-06T02:50:56;10.37;;;5.17;;
69188;SDS011;56302;52.322;5.926;2023-04-06T02:53:21;9.87;;;5.13;;
69188;SDS011;56302;52.322;5.926;2023-04-06T02:55:47;13.07;;;5.45;;
69188;SDS011;56302;52.322;5.926;2023-04-06T02:58:12;13.10;;;6.20;;
69188;SDS011;56302;52.322;5.926;2023-04-06T03:00:38;12.00;;;5.80;;
69188;SDS011;56302;52.322;5.926;2023-04-06T03:03:03;10.37;;;5.87;;
69188;SDS011;56302;52.322;5.926;2023-04-06T03:05:29;11.20;;;5.60;;
69188;SDS011;56302;52.322;5.926;2023-04-06T03:07:55;11.07;;;5.33;;
69188;SDS011;56302;52.322;5.926;2023-04-06T03:10:21;10.93;;;5.82;;
69188;SDS011;56302;52.322;5.926;2023-04-06T03:12:46;13.50;;;6.27;;
69188;SDS011;56302;52.322;5.926;2023-04-06T03:15:12;12.80;;;6.17;;
69188;SDS011;56302;52.322;5.926;2023-04-06T03:17:38;10.52;;;6.20;;
69188;SDS011;56302;52.322;5.926;2023-04-06T03:20:04;10.73;;;5.97;;
69188;SDS011;56302;52.322;5.926;2023-04-06T03:22:30;11.68;;;5.82;;
69188;SDS011;56302;52.322;5.926;2023-04-06T03:24:55;11.65;;;6.47;;
69188;SDS011;56302;52.322;5.926;2023-04-06T03:27:21;14.20;;;5.87;;
69188;SDS011;56302;52.322;5.926;2023-04-06T03:29:46;14.40;;;6.30;;
69188;SDS011;56302;52.322;5.926;2023-04-06T03:32:12;11.67;;;6.43;;
69188;SDS011;56302;52.322;5.926;2023-04-06T03:34:38;10.32;;;5.95;;
69188;SDS011;56302;52.322;5.926;2023-04-06T03:37:04;12.60;;;5.83;;
69188;SDS011;56302;52.322;5.926;2023-04-06T03:39:30;11.93;;;6.18;;
69188;SDS011;56302;52.322;5.926;2023-04-06T03:41:55;12.00;;;5.80;;
69188;SDS011;56302;52.322;5.926;2023-04-06T03:44:21;13.30;;;6.20;;
69188;SDS011;56302;52.322;5.926;2023-04-06T03:46:46;13.20;;;6.47;;
69188;SDS011;56302;52.322;5.926;2023-04-06T03:49:12;12.20;;;6.23;;
69188;SDS011;56302;52.322;5.926;2023-04-06T03:51:37;13.17;;;6.20;;
69188;SDS011;56302;52.322;5.926;2023-04-06T03:54:04;14.63;;;6.20;;
69188;SDS011;56302;52.322;5.926;2023-04-06T03:56:29;23.05;;;6.95;;
69188;SDS011;56302;52.322;5.926;2023-04-06T03:58:55;11.73;;;5.80;;
69188;SDS011;56302;52.322;5.926;2023-04-06T04:01:21;13.90;;;6.90;;
69188;SDS011;56302;52.322;5.926;2023-04-06T04:03:46;14.43;;;6.93;;
69188;SDS011;56302;52.322;5.926;2023-04-06T04:06:12;12.80;;;6.67;;
69188;SDS011;56302;52.322;5.926;2023-04-06T04:08:37;19.47;;;6.97;;
69188;SDS011;56302;52.322;5.926;2023-04-06T04:11:03;12.75;;;6.05;;
69188;SDS011;56302;52.322;5.926;2023-04-06T04:13:28;13.87;;;6.20;;
69188;SDS011;56302;52.322;5.926;2023-04-06T04:15:54;14.23;;;6.37;;
69188;SDS011;56302;52.322;5.926;2023-04-06T04:18:19;18.50;;;6.75;;
69188;SDS011;56302;52.322;5.926;2023-04-06T04:20:45;13.25;;;6.68;;
69188;SDS011;56302;52.322;5.926;2023-04-06T04:23:11;12.87;;;7.43;;
69188;SDS011;56302;52.322;5.926;2023-04-06T04:25:36;17.42;;;6.68;;
69188;SDS011;56302;52.322;5.926;2023-04-06T04:28:02;15.43;;;7.37;;
69188;SDS011;56302;52.322;5.926;2023-04-06T04:30:27;15.93;;;7.73;;
69188;SDS011;56302;52.322;5.926;2023-04-06T04:32:53;16.27;;;7.57;;
69188;SDS011;56302;52.322;5.926;2023-04-06T04:35:18;17.27;;;8.80;;
69188;SDS011;56302;52.322;5.926;2023-04-06T04:37:44;16.17;;;7.95;;
69188;SDS011;56302;52.322;5.926;2023-04-06T04:40:10;18.00;;;8.00;;
69188;SDS011;56302;52.322;5.926;2023-04-06T04:42:36;18.63;;;8.90;;
69188;SDS011;56302;52.322;5.926;2023-04-06T04:45:01;18.60;;;8.23;;
69188;SDS011;56302;52.322;5.926;2023-04-06T04:47:27;14.70;;;8.03;;
69188;SDS011;56302;52.322;5.926;2023-04-06T04:49:53;17.92;;;8.73;;
69188;SDS011;56302;52.322;5.926;2023-04-06T04:52:18;18.50;;;8.23;;
69188;SDS011;56302;52.322;5.926;2023-04-06T04:54:44;16.27;;;8.40;;
69188;SDS011;56302;52.322;5.926;2023-04-06T04:57:11;18.10;;;8.10;;
69188;SDS011;56302;52.322;5.926;2023-04-06T04:59:37;16.65;;;8.23;;
69188;SDS011;56302;52.322;5.926;2023-04-06T05:02:02;18.23;;;9.07;;
69188;SDS011;56302;52.322;5.926;2023-04-06T05:04:28;18.20;;;9.67;;
69188;SDS011;56302;52.322;5.926;2023-04-06T05:07:06;18.75;;;9.85;;
69188;SDS011;56302;52.322;5.926;2023-04-06T05:09:35;20.57;;;9.80;;
69188;SDS011;56302;52.322;5.926;2023-04-06T05:12:01;17.30;;;9.52;;
69188;SDS011;56302;52.322;5.926;2023-04-06T05:14:27;20.52;;;10.40;;
69188;SDS011;56302;52.322;5.926;2023-04-06T05:16:53;17.30;;;8.10;;
69188;SDS011;56302;52.322;5.926;2023-04-06T05:19:19;14.27;;;7.63;;
69188;SDS011;56302;52.322;5.926;2023-04-06T05:21:44;15.53;;;7.83;;
69188;SDS011;56302;52.322;5.926;2023-04-06T05:24:10;19.25;;;8.15;;
69188;SDS011;56302;52.322;5.926;2023-04-06T05:26:35;19.27;;;8.73;;
69188;SDS011;56302;52.322;5.926;2023-04-06T05:29:01;18.15;;;9.88;;
69188;SDS011;56302;52.322;5.926;2023-04-06T05:31:26;15.68;;;8.45;;
69188;SDS011;56302;52.322;5.926;2023-04-06T05:33:52;15.30;;;8.60;;
69188;SDS011;56302;52.322;5.926;2023-04-06T05:36:18;19.48;;;9.20;;
69188;SDS011;56302;52.322;5.926;2023-04-06T05:38:43;20.83;;;9.40;;
69188;SDS011;56302;52.322;5.926;2023-04-06T05:41:09;16.90;;;9.00;;
69188;SDS011;56302;52.322;5.926;2023-04-06T05:43:35;18.52;;;9.40;;
69188;SDS011;56302;52.322;5.926;2023-04-06T05:46:01;15.27;;;8.43;;
69188;SDS011;56302;52.322;5.926;2023-04-06T05:48:27;15.57;;;8.57;;
69188;SDS011;56302;52.322;5.926;2023-04-06T05:50:52;18.15;;;9.18;;
69188;SDS011;56302;52.322;5.926;2023-04-06T05:53:18;17.48;;;9.18;;
69188;SDS011;56302;52.322;5.926;2023-04-06T05:55:45;18.27;;;9.25;;
69188;SDS011;56302;52.322;5.926;2023-04-06T05:58:11;22.23;;;9.10;;
69188;SDS011;56302;52.322;5.926;2023-04-06T06:00:37;17.88;;;8.65;;
69188;SDS011;56302;52.322;5.926;2023-04-06T06:03:02;17.20;;;9.63;;
69188;SDS011;56302;52.322;5.926;2023-04-06T06:05:31;17.13;;;8.75;;
69188;SDS011;56302;52.322;5.926;2023-04-06T06:07:56;17.77;;;9.13;;
69188;SDS011;56302;52.322;5.926;2023-04-06T06:10:22;18.90;;;10.37;;
69188;SDS011;56302;52.322;5.926;2023-04-06T06:12:48;22.23;;;9.88;;
69188;SDS011;56302;52.322;5.926;2023-04-06T06:15:13;19.03;;;9.23;;
69188;SDS011;56302;52.322;5.926;2023-04-06T06:17:39;18.08;;;9.30;;
69188;SDS011;56302;52.322;5.926;2023-04-06T06:20:05;19.77;;;9.67;;
69188;SDS011;56302;52.322;5.926;2023-04-06T06:22:32;18.48;;;9.48;;
69188;SDS011;56302;52.322;5.926;2023-04-06T06:24:57;20.17;;;9.63;;
69188;SDS011;56302;52.322;5.926;2023-04-06T06:27:23;18.85;;;9.38;;
69188;SDS011;56302;52.322;5.926;2023-04-06T06:29:48;20.33;;;10.00;;
69188;SDS011;56302;52.322;5.926;2023-04-06T06:32:14;19.80;;;9.53;;
69188;SDS011;56302;52.322;5.926;2023-04-06T06:34:40;19.85;;;9.65;;
69188;SDS011;56302;52.322;5.926;2023-04-06T06:37:05;18.07;;;9.80;;
69188;SDS011;56302;52.322;5.926;2023-04-06T06:39:31;18.57;;;10.17;;
69188;SDS011;56302;52.322;5.926;2023-04-06T06:41:56;18.60;;;10.07;;
69188;SDS011;56302;52.322;5.926;2023-04-06T06:44:22;19.23;;;9.30;;
69188;SDS011;56302;52.322;5.926;2023-04-06T06:46:48;21.83;;;9.97;;
69188;SDS011;56302;52.322;5.926;2023-04-06T06:49:13;18.45;;;10.32;;
69188;SDS011;56302;52.322;5.926;2023-04-06T06:51:39;20.20;;;10.23;;
69188;SDS011;56302;52.322;5.926;2023-04-06T06:54:05;18.77;;;10.43;;
69188;SDS011;56302;52.322;5.926;2023-04-06T06:56:30;20.13;;;10.33;;
69188;SDS011;56302;52.322;5.926;2023-04-06T06:58:56;18.63;;;10.88;;
69188;SDS011;56302;52.322;5.926;2023-04-06T07:01:21;19.33;;;9.70;;
69188;SDS011;56302;52.322;5.926;2023-04-06T07:03:47;17.90;;;9.97;;
69188;SDS011;56302;52.322;5.926;2023-04-06T07:06:12;18.30;;;10.10;;
69188;SDS011;56302;52.322;5.926;2023-04-06T07:08:38;22.43;;;10.87;;
69188;SDS011;56302;52.322;5.926;2023-04-06T07:11:04;18.57;;;10.77;;
69188;SDS011;56302;52.322;5.926;2023-04-06T07:13:29;18.98;;;10.75;;
69188;SDS011;56302;52.322;5.926;2023-04-06T07:15:55;19.03;;;10.60;;
69188;SDS011;56302;52.322;5.926;2023-04-06T07:18:20;22.57;;;9.93;;
69188;SDS011;56302;52.322;5.926;2023-04-06T07:20:47;20.83;;;10.43;;
69188;SDS011;56302;52.322;5.926;2023-04-06T07:23:12;20.40;;;10.07;;
69188;SDS011;56302;52.322;5.926;2023-04-06T07:25:38;19.77;;;10.98;;
69188;SDS011;56302;52.322;5.926;2023-04-06T07:28:03;22.70;;;10.90;;
69188;SDS011;56302;52.322;5.926;2023-04-06T07:30:29;19.80;;;10.63;;
69188;SDS011;56302;52.322;5.926;2023-04-06T07:32:55;16.38;;;10.07;;
69188;SDS011;56302;52.322;5.926;2023-04-06T07:35:22;21.98;;;10.43;;
69188;SDS011;56302;52.322;5.926;2023-04-06T07:37:51;19.23;;;10.88;;
69188;SDS011;56302;52.322;5.926;2023-04-06T07:40:20;21.50;;;11.05;;
69188;SDS011;56302;52.322;5.926;2023-04-06T07:42:46;18.57;;;10.93;;
69188;SDS011;56302;52.322;5.926;2023-04-06T07:45:11;19.87;;;10.47;;
69188;SDS011;56302;52.322;5.926;2023-04-06T07:47:37;18.02;;;11.00;;
69188;SDS011;56302;52.322;5.926;2023-04-06T07:50:02;21.93;;;11.13;;
69188;SDS011;56302;52.322;5.926;2023-04-06T07:52:28;22.23;;;10.75;;
69188;SDS011;56302;52.322;5.926;2023-04-06T07:54:55;23.42;;;10.32;;
69188;SDS011;56302;52.322;5.926;2023-04-06T07:57:20;18.07;;;10.17;;
69188;SDS011;56302;52.322;5.926;2023-04-06T07:59:46;22.10;;;10.57;;
69188;SDS011;56302;52.322;5.926;2023-04-06T08:02:11;21.27;;;10.43;;
69188;SDS011;56302;52.322;5.926;2023-04-06T08:04:37;20.70;;;10.52;;
69188;SDS011;56302;52.322;5.926;2023-04-06T08:07:02;20.53;;;10.60;;
69188;SDS011;56302;52.322;5.926;2023-04-06T08:09:28;18.93;;;10.47;;
69188;SDS011;56302;52.322;5.926;2023-04-06T08:11:53;21.45;;;10.35;;
69188;SDS011;56302;52.322;5.926;2023-04-06T08:14:19;23.23;;;10.33;;
69188;SDS011;56302;52.322;5.926;2023-04-06T08:16:45;18.58;;;10.55;;
69188;SDS011;56302;52.322;5.926;2023-04-06T08:19:11;19.25;;;11.50;;
69188;SDS011;56302;52.322;5.926;2023-04-06T08:21:37;18.10;;;10.07;;
69188;SDS011;56302;52.322;5.926;2023-04-06T08:24:02;19.90;;;10.07;;
69188;SDS011;56302;52.322;5.926;2023-04-06T08:26:28;18.73;;;10.93;;
69188;SDS011;56302;52.322;5.926;2023-04-06T08:28:54;17.35;;;10.02;;
69188;SDS011;56302;52.322;5.926;2023-04-06T08:31:20;18.85;;;10.85;;
69188;SDS011;56302;52.322;5.926;2023-04-06T08:33:45;20.38;;;11.70;;
69188;SDS011;56302;52.322;5.926;2023-04-06T08:36:12;19.90;;;11.30;;
69188;SDS011;56302;52.322;5.926;2023-04-06T08:38:38;18.40;;;10.55;;
69188;SDS011;56302;52.322;5.926;2023-04-06T08:41:08;20.30;;;11.65;;
69188;SDS011;56302;52.322;5.926;2023-04-06T08:43:35;19.00;;;11.23;;
69188;SDS011;56302;52.322;5.926;2023-04-06T08:46:13;21.73;;;11.45;;
69188;SDS011;56302;52.322;5.926;2023-04-06T08:48:40;22.95;;;11.50;;
69188;SDS011;56302;52.322;5.926;2023-04-06T08:51:07;24.50;;;11.65;;
69188;SDS011;56302;52.322;5.926;2023-04-06T08:53:34;20.67;;;11.07;;
69188;SDS011;56302;52.322;5.926;2023-04-06T08:55:59;21.00;;;11.70;;
69188;SDS011;56302;52.322;5.926;2023-04-06T08:58:28;21.30;;;12.07;;
69188;SDS011;56302;52.322;5.926;2023-04-06T09:00:57;18.63;;;11.43;;
69188;SDS011;56302;52.322;5.926;2023-04-06T09:03:23;19.35;;;10.95;;
69188;SDS011;56302;52.322;5.926;2023-04-06T09:05:51;23.20;;;12.15;;
69188;SDS011;56302;52.322;5.926;2023-04-06T09:08:16;22.73;;;12.18;;
69188;SDS011;56302;52.322;5.926;2023-04-06T09:10:42;20.60;;;10.63;;
69188;SDS011;56302;52.322;5.926;2023-04-06T09:13:08;20.55;;;10.82;;
69188;SDS011;56302;52.322;5.926;2023-04-06T09:15:34;19.98;;;10.95;;
69188;SDS011;56302;52.322;5.926;2023-04-06T09:18:00;20.87;;;11.73;;
69188;SDS011;56302;52.322;5.926;2023-04-06T09:20:26;24.55;;;10.90;;
69188;SDS011;56302;52.322;5.926;2023-04-06T09:22:53;22.25;;;11.00;;
69188;SDS011;56302;52.322;5.926;2023-04-06T09:25:20;21.08;;;11.38;;
69188;SDS011;56302;52.322;5.926;2023-04-06T09:27:47;20.17;;;11.13;;
69188;SDS011;56302;52.322;5.926;2023-04-06T09:30:14;20.27;;;10.73;;
69188;SDS011;56302;52.322;5.926;2023-04-06T09:35:12;21.73;;;10.82;;
69188;SDS011;56302;52.322;5.926;2023-04-06T09:37:37;20.38;;;10.75;;
69188;SDS011;56302;52.322;5.926;2023-04-06T09:40:06;20.10;;;11.25;;
69188;SDS011;56302;52.322;5.926;2023-04-06T09:42:32;22.77;;;10.30;;
69188;SDS011;56302;52.322;5.926;2023-04-06T09:44:59;19.80;;;10.33;;
69188;SDS011;56302;52.322;5.926;2023-04-06T09:47:26;19.55;;;10.48;;
69188;SDS011;56302;52.322;5.926;2023-04-06T09:49:55;19.90;;;11.13;;
69188;SDS011;56302;52.322;5.926;2023-04-06T09:52:32;20.45;;;11.07;;
69188;SDS011;56302;52.322;5.926;2023-04-06T09:55:03;20.50;;;10.73;;
69188;SDS011;56302;52.322;5.926;2023-04-06T09:57:50;20.10;;;10.27;;
69188;SDS011;56302;52.322;5.926;2023-04-06T10:00:25;20.67;;;10.20;;
69188;SDS011;56302;52.322;5.926;2023-04-06T10:02:58;22.95;;;11.52;;
69188;SDS011;56302;52.322;5.926;2023-04-06T10:08:20;20.88;;;11.52;;
69188;SDS011;56302;52.322;5.926;2023-04-06T10:10:49;21.53;;;11.80;;
69188;SDS011;56302;52.322;5.926;2023-04-06T10:13:16;23.23;;;11.60;;
69188;SDS011;56302;52.322;5.926;2023-04-06T10:15:43;23.45;;;11.40;;
69188;SDS011;56302;52.322;5.926;2023-04-06T10:18:10;21.77;;;11.00;;
69188;SDS011;56302;52.322;5.926;2023-04-06T10:26:01;22.95;;;10.98;;
69188;SDS011;56302;52.322;5.926;2023-04-06T10:28:31;21.80;;;12.05;;
69188;SDS011;56302;52.322;5.926;2023-04-06T10:30:59;24.42;;;11.57;;
69188;SDS011;56302;52.322;5.926;2023-04-06T10:33:26;23.63;;;11.40;;
69188;SDS011;56302;52.322;5.926;2023-04-06T10:35:52;22.53;;;11.53;;
69188;SDS011;56302;52.322;5.926;2023-04-06T10:38:20;26.33;;;11.38;;
69188;SDS011;56302;52.322;5.926;2023-04-06T10:40:47;26.23;;;11.73;;
69188;SDS011;56302;52.322;5.926;2023-04-06T10:43:17;22.63;;;10.40;;
69188;SDS011;56302;52.322;5.926;2023-04-06T10:45:45;22.60;;;11.23;;
69188;SDS011;56302;52.322;5.926;2023-04-06T10:48:20;25.07;;;11.13;;
69188;SDS011;56302;52.322;5.926;2023-04-06T10:50:47;20.17;;;9.90;;
69188;SDS011;56302;52.322;5.926;2023-04-06T10:53:20;21.75;;;11.27;;
69188;SDS011;56302;52.322;5.926;2023-04-06T10:55:48;20.50;;;10.05;;
69188;SDS011;56302;52.322;5.926;2023-04-06T10:58:15;24.83;;;10.88;;
69188;SDS011;56302;52.322;5.926;2023-04-06T11:00:45;20.33;;;10.18;;
69188;SDS011;56302;52.322;5.926;2023-04-06T11:03:11;21.37;;;10.13;;
69188;SDS011;56302;52.322;5.926;2023-04-06T11:05:37;18.20;;;9.05;;
69188;SDS011;56302;52.322;5.926;2023-04-06T11:08:02;20.43;;;9.87;;
69188;SDS011;56302;52.322;5.926;2023-04-06T11:10:28;18.10;;;9.77;;
69188;SDS011;56302;52.322;5.926;2023-04-06T11:12:55;18.95;;;10.07;;
69188;SDS011;56302;52.322;5.926;2023-04-06T11:15:21;18.67;;;10.02;;
69188;SDS011;56302;52.322;5.926;2023-04-06T11:17:47;16.90;;;8.55;;
69188;SDS011;56302;52.322;5.926;2023-04-06T11:20:14;16.65;;;8.75;;
69188;SDS011;56302;52.322;5.926;2023-04-06T11:22:49;22.48;;;8.75;;
69188;SDS011;56302;52.322;5.926;2023-04-06T11:25:18;15.30;;;8.57;;
69188;SDS011;56302;52.322;5.926;2023-04-06T11:27:44;17.40;;;9.27;;
69188;SDS011;56302;52.322;5.926;2023-04-06T11:30:11;16.80;;;9.18;;
69188;SDS011;56302;52.322;5.926;2023-04-06T11:32:42;15.45;;;9.40;;
69188;SDS011;56302;52.322;5.926;2023-04-06T11:35:26;15.82;;;8.32;;
69188;SDS011;56302;52.322;5.926;2023-04-06T11:37:52;14.18;;;8.48;;
69188;SDS011;56302;52.322;5.926;2023-04-06T11:40:20;18.97;;;8.80;;
69188;SDS011;56302;52.322;5.926;2023-04-06T11:42:54;16.55;;;7.88;;
69188;SDS011;56302;52.322;5.926;2023-04-06T11:45:20;14.00;;;7.45;;
69188;SDS011;56302;52.322;5.926;2023-04-06T11:47:54;14.70;;;6.67;;
69188;SDS011;56302;52.322;5.926;2023-04-06T11:50:22;13.20;;;6.95;;
69188;SDS011;56302;52.322;5.926;2023-04-06T11:52:47;14.18;;;6.93;;
69188;SDS011;56302;52.322;5.926;2023-04-06T11:55:24;16.35;;;7.57;;
69188;SDS011;56302;52.322;5.926;2023-04-06T11:57:50;12.18;;;7.50;;
69188;SDS011;56302;52.322;5.926;2023-04-06T12:00:16;14.50;;;7.80;;
69188;SDS011;56302;52.322;5.926;2023-04-06T12:02:45;13.48;;;6.88;;
69188;SDS011;56302;52.322;5.926;2023-04-06T12:05:11;15.90;;;8.13;;
69188;SDS011;56302;52.322;5.926;2023-04-06T12:07:36;14.60;;;7.47;;
69188;SDS011;56302;52.322;5.926;2023-04-06T12:10:02;18.85;;;8.65;;
69188;SDS011;56302;52.322;5.926;2023-04-06T12:12:29;17.38;;;8.80;;
69188;SDS011;56302;52.322;5.926;2023-04-06T12:14:55;19.03;;;10.00;;
69188;SDS011;56302;52.322;5.926;2023-04-06T12:17:20;17.58;;;9.73;;
69188;SDS011;56302;52.322;5.926;2023-04-06T12:19:46;16.53;;;9.33;;
69188;SDS011;56302;52.322;5.926;2023-04-06T12:22:12;15.93;;;10.07;;
69188;SDS011;56302;52.322;5.926;2023-04-06T12:24:38;17.27;;;9.77;;
69188;SDS011;56302;52.322;5.926;2023-04-06T12:27:03;17.40;;;9.30;;
69188;SDS011;56302;52.322;5.926;2023-04-06T12:29:29;15.53;;;8.47;;
69188;SDS011;56302;52.322;5.926;2023-04-06T12:31:54;15.57;;;9.80;;
69188;SDS011;56302;52.322;5.926;2023-04-06T12:34:20;15.00;;;8.93;;
69188;SDS011;56302;52.322;5.926;2023-04-06T12:36:45;14.50;;;8.65;;
69188;SDS011;56302;52.322;5.926;2023-04-06T12:39:11;13.03;;;8.43;;
69188;SDS011;56302;52.322;5.926;2023-04-06T12:41:36;15.30;;;8.50;;
69188;SDS011;56302;52.322;5.926;2023-04-06T12:44:05;13.18;;;7.85;;
69188;SDS011;56302;52.322;5.926;2023-04-06T12:46:30;15.63;;;8.48;;
69188;SDS011;56302;52.322;5.926;2023-04-06T12:48:56;13.35;;;8.15;;
69188;SDS011;56302;52.322;5.926;2023-04-06T12:51:23;14.43;;;8.60;;
69188;SDS011;56302;52.322;5.926;2023-04-06T12:53:50;15.15;;;7.95;;
69188;SDS011;56302;52.322;5.926;2023-04-06T12:56:17;13.98;;;7.95;;
69188;SDS011;56302;52.322;5.926;2023-04-06T12:58:43;13.85;;;8.20;;
69188;SDS011;56302;52.322;5.926;2023-04-06T13:01:09;13.23;;;7.90;;
69188;SDS011;56302;52.322;5.926;2023-04-06T13:03:37;13.98;;;8.23;;
69188;SDS011;56302;52.322;5.926;2023-04-06T13:06:03;16.20;;;7.97;;
69188;SDS011;56302;52.322;5.926;2023-04-06T13:08:29;14.20;;;7.40;;
69188;SDS011;56302;52.322;5.926;2023-04-06T13:10:54;12.20;;;7.03;;
69188;SDS011;56302;52.322;5.926;2023-04-06T13:13:24;12.45;;;7.22;;
69188;SDS011;56302;52.322;5.926;2023-04-06T13:15:52;14.18;;;7.88;;
69188;SDS011;56302;52.322;5.926;2023-04-06T13:18:18;16.65;;;7.90;;
69188;SDS011;56302;52.322;5.926;2023-04-06T13:20:46;12.93;;;7.13;;
69188;SDS011;56302;52.322;5.926;2023-04-06T13:23:12;13.18;;;7.15;;
69188;SDS011;56302;52.322;5.926;2023-04-06T13:25:38;12.07;;;7.03;;
69188;SDS011;56302;52.322;5.926;2023-04-06T13:28:03;13.48;;;7.53;;
69188;SDS011;56302;52.322;5.926;2023-04-06T13:30:29;13.40;;;7.17;;
69188;SDS011;56302;52.322;5.926;2023-04-06T13:32:55;14.30;;;7.20;;
69188;SDS011;56302;52.322;5.926;2023-04-06T13:35:20;11.80;;;6.60;;
69188;SDS011;56302;52.322;5.926;2023-04-06T13:37:46;11.93;;;6.32;;
69188;SDS011;56302;52.322;5.926;2023-04-06T13:40:13;10.63;;;5.77;;
69188;SDS011;56302;52.322;5.926;2023-04-06T13:42:39;11.50;;;6.90;;
69188;SDS011;56302;52.322;5.926;2023-04-06T13:45:06;13.52;;;6.88;;
69188;SDS011;56302;52.322;5.926;2023-04-06T13:47:31;10.85;;;6.00;;
69188;SDS011;56302;52.322;5.926;2023-04-06T13:49:57;10.60;;;5.43;;
69188;SDS011;56302;52.322;5.926;2023-04-06T13:52:22;9.20;;;5.63;;
69188;SDS011;56302;52.322;5.926;2023-04-06T13:54:48;8.95;;;4.90;;
69188;SDS011;56302;52.322;5.926;2023-04-06T13:57:15;9.48;;;5.43;;
69188;SDS011;56302;52.322;5.926;2023-04-06T13:59:40;7.83;;;4.40;;
69188;SDS011;56302;52.322;5.926;2023-04-06T14:02:07;9.23;;;5.10;;
69188;SDS011;56302;52.322;5.926;2023-04-06T14:04:34;9.77;;;4.93;;
69188;SDS011;56302;52.322;5.926;2023-04-06T14:07:00;8.43;;;4.47;;
69188;SDS011;56302;52.322;5.926;2023-04-06T14:09:27;11.70;;;5.07;;
69188;SDS011;56302;52.322;5.926;2023-04-06T14:11:53;9.23;;;4.88;;
69188;SDS011;56302;52.322;5.926;2023-04-06T14:14:19;9.23;;;5.22;;
69188;SDS011;56302;52.322;5.926;2023-04-06T14:16:45;8.65;;;5.03;;
69188;SDS011;56302;52.322;5.926;2023-04-06T14:19:12;8.83;;;5.10;;
69188;SDS011;56302;52.322;5.926;2023-04-06T14:21:40;9.57;;;5.30;;
69188;SDS011;56302;52.322;5.926;2023-04-06T14:24:07;9.18;;;5.03;;
69188;SDS011;56302;52.322;5.926;2023-04-06T14:26:33;9.20;;;5.43;;
69188;SDS011;56302;52.322;5.926;2023-04-06T14:29:00;9.82;;;5.22;;
69188;SDS011;56302;52.322;5.926;2023-04-06T14:31:26;10.93;;;5.07;;
69188;SDS011;56302;52.322;5.926;2023-04-06T14:33:51;10.07;;;5.82;;
69188;SDS011;56302;52.322;5.926;2023-04-06T14:36:17;8.95;;;5.60;;